Time;durP1;ratioP1;P1;durP2;ratioP2;P2;SDS_P1;SDS_P2;PMS_P1;PMS_P2;Temp;Humidity;BMP_temperature;BMP_pressure;BME280_temperature;BME280_humidity;BME280_pressure;Samples;Min_cycle;Max_cycle;Signal;HPM_P1;HPM_P2
2023/10/20 00:00:52;;;;;;;1999.90;999.90;;;12.80;99.90;;;;;;5138327;27;20039;-70
2023/10/20 00:03:17;;;;;;;1999.90;999.90;;;12.90;99.90;;;;;;5138417;27;20192;-69
2023/10/20 00:05:43;;;;;;;1999.90;999.90;;;12.80;99.90;;;;;;5137558;27;20062;-69
2023/10/20 00:08:09;;;;;;;1999.90;999.90;;;12.90;99.90;;;;;;5138089;27;20039;-69
2023/10/20 00:10:39;;;;;;;1999.90;999.90;;;12.90;99.90;;;;;;5138029;27;20031;-69
2023/10/20 00:13:05;;;;;;;1999.90;999.90;;;12.90;99.90;;;;;;5137802;27;20028;-69
2023/10/20 00:15:31;;;;;;;1999.90;999.90;;;12.90;99.90;;;;;;5138034;27;20108;-70
2023/10/20 00:17:57;;;;;;;1999.90;999.90;;;12.90;99.90;;;;;;5137772;27;20116;-69
2023/10/20 00:20:22;;;;;;;1999.90;999.90;;;12.90;99.90;;;;;;5137879;27;20134;-70
2023/10/20 00:22:48;;;;;;;1999.90;999.90;;;13.00;99.90;;;;;;5137574;27;20497;-70
2023/10/20 00:25:14;;;;;;;1999.90;999.90;;;13.00;99.90;;;;;;5137570;27;20045;-69
2023/10/20 00:27:41;;;;;;;1999.90;999.90;;;13.00;99.90;;;;;;5137163;27;20088;-70
2023/10/20 00:30:07;;;;;;;1999.90;999.90;;;13.00;99.90;;;;;;5137867;27;20136;-69
2023/10/20 00:32:34;;;;;;;1999.90;999.90;;;13.00;99.90;;;;;;5137543;27;20031;-69
2023/10/20 00:35:03;;;;;;;1999.90;999.90;;;12.90;99.90;;;;;;5137747;27;20053;-69
2023/10/20 00:37:29;;;;;;;1999.90;999.90;;;13.00;99.90;;;;;;5137148;27;20073;-70
2023/10/20 00:39:55;;;;;;;1999.90;999.90;;;13.00;99.90;;;;;;5136137;27;20441;-69
2023/10/20 00:42:20;;;;;;;1999.90;999.90;;;13.00;99.90;;;;;;5135761;27;20043;-69
2023/10/20 00:44:46;;;;;;;1999.90;999.90;;;13.00;99.90;;;;;;5137084;27;20027;-69
2023/10/20 00:47:11;;;;;;;1999.90;999.90;;;13.10;99.90;;;;;;5136980;27;20473;-69
2023/10/20 00:49:37;;;;;;;1999.90;999.90;;;13.10;99.90;;;;;;5137519;27;20089;-68
2023/10/20 00:52:03;;;;;;;1999.90;999.90;;;13.00;99.90;;;;;;5137439;27;20504;-69
2023/10/20 00:54:30;;;;;;;1999.90;999.90;;;13.00;99.90;;;;;;5136952;27;20031;-70
2023/10/20 00:56:56;;;;;;;1999.90;999.90;;;13.00;99.90;;;;;;5135502;27;20032;-70
2023/10/20 00:59:22;;;;;;;1999.90;999.90;;;13.00;99.90;;;;;;5136679;27;20039;-70
2023/10/20 01:01:47;;;;;;;1999.90;999.90;;;13.00;99.90;;;;;;5137427;27;20554;-70
2023/10/20 01:04:13;;;;;;;1999.90;999.90;;;13.00;99.90;;;;;;5137269;27;20046;-69
2023/10/20 01:06:39;;;;;;;1999.90;999.90;;;13.00;99.90;;;;;;5135614;27;20077;-69
2023/10/20 01:09:09;;;;;;;1999.90;999.90;;;13.00;99.90;;;;;;5137007;27;20035;-69
2023/10/20 01:11:35;;;;;;;1999.90;999.90;;;13.00;99.90;;;;;;5136974;27;20039;-69
2023/10/20 01:14:01;;;;;;;1999.90;999.90;;;13.00;99.90;;;;;;5137228;27;20047;-68
2023/10/20 01:16:27;;;;;;;1999.90;999.90;;;12.90;99.90;;;;;;5136449;27;20055;-69
2023/10/20 01:18:53;;;;;;;1999.90;999.90;;;13.00;99.90;;;;;;5136947;27;20038;-70
2023/10/20 01:21:19;;;;;;;1999.90;999.90;;;13.00;99.90;;;;;;5136291;27;20046;-70
2023/10/20 01:23:44;;;;;;;1999.90;999.90;;;13.00;99.90;;;;;;5136385;27;20512;-70
2023/10/20 01:26:10;;;;;;;1999.90;999.90;;;13.00;99.90;;;;;;5136233;27;20040;-70
2023/10/20 01:28:35;;;;;;;1999.90;999.90;;;13.00;99.90;;;;;;5136678;27;20035;-70
2023/10/20 01:31:01;;;;;;;1999.90;999.90;;;13.00;99.90;;;;;;5136752;27;20140;-70
2023/10/20 01:33:27;;;;;;;1999.90;999.90;;;13.00;99.90;;;;;;5136760;27;20081;-68
2023/10/20 01:35:52;;;;;;;1999.90;999.90;;;13.00;99.90;;;;;;5135835;27;21824;-70
2023/10/20 01:38:18;;;;;;;1999.90;999.90;;;13.00;99.90;;;;;;5134840;27;20405;-70
2023/10/20 01:40:46;;;;;;;1999.90;999.90;;;13.00;99.90;;;;;;5135046;27;20036;-68
2023/10/20 01:43:12;;;;;;;1999.90;999.90;;;13.00;99.90;;;;;;5136397;27;20066;-70
2023/10/20 01:45:37;;;;;;;1999.90;999.90;;;13.00;99.90;;;;;;5135216;27;20139;-67
2023/10/20 01:48:03;;;;;;;1999.90;999.90;;;13.00;99.90;;;;;;5134296;27;20081;-70
2023/10/20 01:50:29;;;;;;;1999.90;999.90;;;13.00;99.90;;;;;;5136444;27;20040;-70
2023/10/20 01:52:54;;;;;;;1999.90;999.90;;;13.00;99.90;;;;;;5136107;27;20028;-69
2023/10/20 01:55:20;;;;;;;1999.90;999.90;;;13.00;99.90;;;;;;5136002;27;20485;-70
2023/10/20 01:57:45;;;;;;;1999.90;999.90;;;13.00;99.90;;;;;;5135850;27;20070;-70
2023/10/20 02:00:15;;;;;;;1999.90;999.90;;;13.00;99.90;;;;;;5136202;27;20071;-68
2023/10/20 02:02:40;;;;;;;1999.90;999.90;;;13.00;99.90;;;;;;5135037;27;20550;-70
2023/10/20 02:05:10;;;;;;;1999.90;999.90;;;13.00;99.90;;;;;;5135054;27;20044;-70
2023/10/20 02:07:36;;;;;;;1999.90;999.90;;;13.00;99.90;;;;;;5135312;27;20798;-70
2023/10/20 02:10:02;;;;;;;1999.90;999.90;;;13.00;99.90;;;;;;5139517;27;20093;-69
2023/10/20 02:12:28;;;;;;;1999.90;999.90;;;13.10;99.90;;;;;;5139107;27;20100;-70
2023/10/20 02:14:53;;;;;;;1999.90;999.90;;;13.00;99.90;;;;;;5139349;27;20480;-70
2023/10/20 02:17:19;;;;;;;1999.90;999.90;;;13.00;99.90;;;;;;5138484;27;20027;-70
2023/10/20 02:19:45;;;;;;;1999.90;999.90;;;13.00;99.90;;;;;;5138207;27;20039;-69
2023/10/20 02:22:11;;;;;;;1999.90;999.90;;;13.10;99.90;;;;;;5139416;27;20024;-67
2023/10/20 02:24:37;;;;;;;1999.90;999.90;;;13.00;99.90;;;;;;5139398;27;20442;-69
2023/10/20 02:27:03;;;;;;;1999.90;999.90;;;13.00;99.90;;;;;;5138823;27;20047;-70
2023/10/20 02:29:28;;;;;;;1999.90;999.90;;;13.00;99.90;;;;;;5139915;27;20046;-69
2023/10/20 02:31:54;;;;;;;1999.90;999.90;;;13.00;99.90;;;;;;5138112;27;20036;-69
2023/10/20 02:34:20;;;;;;;1999.90;999.90;;;13.00;99.90;;;;;;5138966;27;20035;-68
2023/10/20 02:36:48;;;;;;;1999.90;999.90;;;13.00;99.90;;;;;;5139006;27;20031;-70
2023/10/20 02:39:13;;;;;;;1999.90;999.90;;;12.90;99.90;;;;;;5137780;27;20646;-70
2023/10/20 02:41:40;;;;;;;1999.90;999.90;;;13.00;99.90;;;;;;5137843;27;20032;-69
2023/10/20 02:44:05;;;;;;;1999.90;999.90;;;13.00;99.90;;;;;;5137555;27;20035;-69
2023/10/20 02:46:31;;;;;;;1999.90;999.90;;;12.90;99.90;;;;;;5138402;27;20081;-69
2023/10/20 02:48:57;;;;;;;1999.90;999.90;;;12.90;99.90;;;;;;5139477;27;20089;-70
2023/10/20 02:51:22;;;;;;;1999.90;999.90;;;12.90;99.90;;;;;;5139260;27;20039;-69
2023/10/20 02:53:48;;;;;;;1999.90;999.90;;;13.00;99.90;;;;;;5139259;27;20032;-69
2023/10/20 02:56:18;;;;;;;1999.90;999.90;;;12.90;99.90;;;;;;5136976;27;20028;-69
2023/10/20 02:58:45;;;;;;;1999.90;999.90;;;12.90;99.90;;;;;;5138871;27;20082;-69
2023/10/20 03:01:13;;;;;;;1999.90;999.90;;;12.90;99.90;;;;;;5137645;27;20032;-69
2023/10/20 03:03:39;;;;;;;1999.90;999.90;;;12.90;99.90;;;;;;5139151;27;20031;-68
2023/10/20 03:06:06;;;;;;;1999.90;999.90;;;12.90;99.90;;;;;;5138355;27;20032;-68
2023/10/20 03:08:34;;;;;;;1999.90;999.90;;;12.80;99.90;;;;;;5136593;27;20035;-69
2023/10/20 03:11:00;;;;;;;1999.90;999.90;;;12.80;99.90;;;;;;5136905;27;20051;-69
2023/10/20 03:13:26;;;;;;;1999.90;999.90;;;12.90;99.90;;;;;;5138375;27;20503;-70
2023/10/20 03:15:53;;;;;;;1999.90;999.90;;;12.80;99.90;;;;;;5138723;27;20063;-69
2023/10/20 03:18:19;;;;;;;1999.90;999.90;;;12.90;99.90;;;;;;5138780;27;20459;-69
2023/10/20 03:20:46;;;;;;;1999.90;999.90;;;12.90;99.90;;;;;;5138095;27;20061;-70
2023/10/20 03:23:13;;;;;;;1999.90;999.90;;;12.90;99.90;;;;;;5138073;27;20082;-70
2023/10/20 03:25:40;;;;;;;1999.90;999.90;;;12.90;99.90;;;;;;5138674;27;20165;-67
2023/10/20 03:28:06;;;;;;;1999.90;999.90;;;12.90;99.90;;;;;;5137923;27;20039;-69
2023/10/20 03:30:42;;;;;;;1999.90;999.90;;;12.90;99.90;;;;;;5138744;27;20028;-69
2023/10/20 03:33:10;;;;;;;1999.90;999.90;;;12.90;99.90;;;;;;5138757;27;20031;-69
2023/10/20 03:35:36;;;;;;;1999.90;999.90;;;12.90;99.90;;;;;;5138055;27;20032;-69
2023/10/20 03:38:03;;;;;;;1999.90;999.90;;;12.90;99.90;;;;;;5137837;27;20043;-70
2023/10/20 03:40:36;;;;;;;1999.90;999.90;;;12.90;99.90;;;;;;5137694;27;20027;-69
2023/10/20 03:43:08;;;;;;;1999.90;999.90;;;12.90;99.90;;;;;;5138740;27;20513;-69
2023/10/20 03:45:51;;;;;;;1999.90;999.90;;;12.90;99.90;;;;;;5138218;27;20039;-69
2023/10/20 03:48:19;;;;;;;1999.90;999.90;;;12.90;99.90;;;;;;5126727;27;20043;-71
2023/10/20 03:50:47;;;;;;;1999.90;999.90;;;12.90;99.90;;;;;;5137890;27;20519;-71
2023/10/20 03:53:23;;;;;;;1999.90;999.90;;;12.90;99.90;;;;;;5137655;27;20024;-70
2023/10/20 03:56:02;;;;;;;1999.90;999.90;;;12.90;99.90;;;;;;5137767;27;20110;-71
2023/10/20 03:58:32;;;;;;;1999.90;999.90;;;12.90;99.90;;;;;;5137710;27;20035;-71
2023/10/20 04:01:01;;;;;;;1999.90;999.90;;;12.90;99.90;;;;;;5137644;27;20035;-70
2023/10/20 04:03:28;;;;;;;1999.90;999.90;;;12.90;99.90;;;;;;5137437;27;20031;-69
2023/10/20 04:05:53;;;;;;;1999.90;999.90;;;12.90;99.90;;;;;;5137674;27;20090;-69
2023/10/20 04:08:20;;;;;;;1999.90;999.90;;;12.90;99.90;;;;;;5137703;27;20729;-70
2023/10/20 04:10:46;;;;;;;1999.90;999.90;;;12.80;99.90;;;;;;5137861;27;20040;-70
2023/10/20 04:13:12;;;;;;;1999.90;999.90;;;12.80;99.90;;;;;;5138062;27;20024;-70
2023/10/20 04:15:39;;;;;;;1999.90;999.90;;;12.80;99.90;;;;;;5137383;27;20036;-68
2023/10/20 04:18:05;;;;;;;1999.90;999.90;;;12.90;99.90;;;;;;5135702;27;20089;-69
2023/10/20 04:20:35;;;;;;;1999.90;999.90;;;12.90;99.90;;;;;;5135350;27;20038;-70
2023/10/20 04:23:00;;;;;;;1999.90;999.90;;;12.90;99.90;;;;;;5137070;27;20498;-71
2023/10/20 04:25:33;;;;;;;1999.90;999.90;;;12.90;99.90;;;;;;5137574;27;20040;-70
2023/10/20 04:28:11;;;;;;;1999.90;999.90;;;12.90;99.90;;;;;;5137302;27;20038;-71
2023/10/20 05:08:04;;;;;;;1999.90;999.90;;;12.90;99.90;;;;;;5135881;27;20047;-70
2023/10/20 05:10:30;;;;;;;1999.90;999.90;;;12.90;99.90;;;;;;5136566;27;20070;-71
2023/10/20 05:12:56;;;;;;;1999.90;999.90;;;12.90;99.90;;;;;;5136627;27;20114;-70
2023/10/20 05:15:21;;;;;;;1999.90;999.90;;;13.00;99.90;;;;;;5134871;27;20039;-69
2023/10/20 05:17:50;;;;;;;1999.90;999.90;;;13.00;99.90;;;;;;5134283;27;20066;-75
2023/10/20 05:20:20;;;;;;;1999.90;999.90;;;13.00;99.90;;;;;;5130256;27;20044;-71
2023/10/20 05:22:46;;;;;;;1999.90;999.90;;;13.00;99.90;;;;;;5122496;27;20039;-71
2023/10/20 05:25:12;;;;;;;1999.90;999.90;;;13.00;99.90;;;;;;5134891;27;20147;-72
2023/10/20 05:27:38;;;;;;;1999.90;999.90;;;13.00;99.90;;;;;;5134905;27;20541;-70
2023/10/20 05:30:04;;;;;;;1999.90;999.90;;;13.00;99.90;;;;;;5135261;27;20082;-70
2023/10/20 05:32:31;;;;;;;1999.90;999.90;;;12.90;99.90;;;;;;5134930;27;20034;-70
2023/10/20 05:35:00;;;;;;;1999.90;999.90;;;12.90;99.90;;;;;;5135194;27;20042;-69
2023/10/20 05:37:26;;;;;;;1999.90;999.90;;;12.90;99.90;;;;;;5135065;27;20568;-70
2023/10/20 05:39:53;;;;;;;1999.90;999.90;;;12.90;99.90;;;;;;5135842;27;20106;-71
2023/10/20 05:42:19;;;;;;;1999.90;999.90;;;12.90;99.90;;;;;;5135332;27;20118;-71
2023/10/20 05:45:03;;;;;;;1999.90;999.90;;;12.80;99.90;;;;;;5135916;27;20031;-71
2023/10/20 05:47:30;;;;;;;1999.90;999.90;;;12.80;99.90;;;;;;5115100;27;20138;-71
2023/10/20 05:49:56;;;;;;;1999.90;999.90;;;12.80;99.90;;;;;;5114969;27;20040;-71
2023/10/20 05:52:22;;;;;;;1999.90;999.90;;;12.70;99.90;;;;;;5115105;27;20031;-70
2023/10/20 05:54:49;;;;;;;1999.90;999.90;;;12.70;99.90;;;;;;5113420;28;20032;-71
2023/10/20 05:57:15;;;;;;;1999.90;999.90;;;12.70;99.90;;;;;;5133818;27;20133;-69
2023/10/20 05:59:59;;;;;;;1999.90;999.90;;;12.70;99.90;;;;;;5131488;27;20260;-68
2023/10/20 06:02:25;;;;;;;1999.90;999.90;;;12.70;99.90;;;;;;5114120;27;20032;-69
2023/10/20 06:04:50;;;;;;;1999.90;999.90;;;12.70;99.90;;;;;;5135122;27;20185;-69
2023/10/20 06:07:16;;;;;;;1999.90;999.90;;;12.70;99.90;;;;;;5134635;27;20155;-69
2023/10/20 06:09:42;;;;;;;1999.90;999.90;;;12.70;99.90;;;;;;5135079;27;20040;-70
2023/10/20 06:12:10;;;;;;;1999.90;999.90;;;12.70;99.90;;;;;;5135566;27;20028;-68
2023/10/20 06:14:38;;;;;;;1999.90;999.90;;;12.70;99.90;;;;;;5135426;27;20108;-71
2023/10/20 06:17:04;;;;;;;1999.90;999.90;;;12.60;99.90;;;;;;5133065;27;20051;-71
2023/10/20 06:19:31;;;;;;;1999.90;999.90;;;12.70;99.90;;;;;;5128011;27;20536;-72
2023/10/20 06:21:56;;;;;;;1999.90;999.90;;;12.70;99.90;;;;;;5120541;27;20166;-71
2023/10/20 06:24:22;;;;;;;1999.90;999.90;;;12.70;99.90;;;;;;5118430;27;20093;-70
2023/10/20 06:26:48;;;;;;;1999.90;999.90;;;12.60;99.90;;;;;;5117976;27;20473;-70
2023/10/20 06:31:47;;;;;;;1999.90;999.90;;;12.60;99.90;;;;;;5133136;27;20780;-72
2023/10/20 06:34:23;;;;;;;1999.90;999.90;;;12.60;99.90;;;;;;5135449;27;20055;-71
2023/10/20 06:36:48;;;;;;;1999.90;999.90;;;12.60;99.90;;;;;;5134725;27;20039;-70
2023/10/20 06:39:18;;;;;;;1999.90;999.90;;;12.50;99.90;;;;;;5135248;27;20046;-71
2023/10/20 06:41:44;;;;;;;1999.90;999.90;;;12.50;99.90;;;;;;5134427;27;20028;-71
2023/10/20 06:44:10;;;;;;;1999.90;999.90;;;12.50;99.90;;;;;;5135022;27;20354;-68
2023/10/20 06:46:36;;;;;;;1999.90;999.90;;;12.50;99.90;;;;;;5134559;27;20040;-71
2023/10/20 06:49:03;;;;;;;1999.90;999.90;;;12.50;99.90;;;;;;5135024;27;20032;-75
2023/10/20 06:51:29;;;;;;;1999.90;999.90;;;12.60;99.90;;;;;;5133575;27;20039;-74
2023/10/20 06:53:55;;;;;;;1999.90;999.90;;;12.50;99.90;;;;;;5133941;27;20035;-73
2023/10/20 06:56:21;;;;;;;1999.90;999.90;;;12.60;99.90;;;;;;5138600;27;20032;-70
2023/10/20 06:58:47;;;;;;;1999.90;999.90;;;12.60;99.90;;;;;;5138197;27;20107;-70
2023/10/20 07:01:13;;;;;;;1999.90;999.90;;;12.60;99.90;;;;;;5138204;27;20035;-71
2023/10/20 07:03:38;;;;;;;1999.90;999.90;;;12.60;99.90;;;;;;5138549;27;20378;-72
2023/10/20 07:06:07;;;;;;;1999.90;999.90;;;12.60;99.90;;;;;;5138043;27;20070;-71
2023/10/20 07:08:33;;;;;;;1999.90;999.90;;;12.60;99.90;;;;;;5138187;27;20118;-70
2023/10/20 07:11:03;;;;;;;1999.90;999.90;;;12.70;99.90;;;;;;5137531;27;20032;-70
2023/10/20 07:13:31;;;;;;;1999.90;999.90;;;12.70;99.90;;;;;;5138370;27;20028;-72
2023/10/20 07:15:57;;;;;;;1999.90;999.90;;;12.80;99.90;;;;;;5137643;27;20489;-70
2023/10/20 07:18:23;;;;;;;1999.90;999.90;;;12.80;99.90;;;;;;5138443;27;20035;-70
2023/10/20 07:20:49;;;;;;;1999.90;999.90;;;12.80;99.90;;;;;;5138438;27;20039;-70
2023/10/20 07:23:16;;;;;;;1999.90;999.90;;;12.90;99.90;;;;;;5136860;27;20028;-71
2023/10/20 07:25:42;;;;;;;1999.90;999.90;;;12.90;99.90;;;;;;5137584;27;20042;-70
2023/10/20 07:28:08;;;;;;;1999.90;999.90;;;12.90;99.90;;;;;;5136203;27;20386;-70
2023/10/20 07:30:34;;;;;;;1999.90;999.90;;;13.00;99.90;;;;;;5124328;27;20050;-70
2023/10/20 07:33:00;;;;;;;1999.90;999.90;;;13.00;99.90;;;;;;5137914;27;20035;-70
2023/10/20 07:35:25;;;;;;;1999.90;999.90;;;13.00;99.90;;;;;;5137843;27;20035;-70
2023/10/20 07:37:51;;;;;;;1999.90;999.90;;;13.10;99.90;;;;;;5136449;27;20040;-71
2023/10/20 07:40:18;;;;;;;1999.90;999.90;;;13.20;99.90;;;;;;5136201;27;20118;-69
2023/10/20 07:42:45;;;;;;;1999.90;999.90;;;13.20;99.90;;;;;;5137647;27;20027;-70
2023/10/20 07:45:11;;;;;;;1999.90;999.90;;;13.20;99.90;;;;;;5122384;27;20072;-77
2023/10/20 07:47:37;;;;;;;1999.90;999.90;;;13.20;99.90;;;;;;5116793;28;20059;-73
2023/10/20 07:50:04;;;;;;;1999.90;999.90;;;13.40;99.90;;;;;;5117194;27;20036;-73
2023/10/20 07:52:29;;;;;;;1999.90;999.90;;;13.30;99.90;;;;;;5119819;27;20027;-73
2023/10/20 07:54:55;;;;;;;1999.90;999.90;;;13.40;99.90;;;;;;5137141;27;20048;-73
2023/10/20 07:57:22;;;;;;;1999.90;999.90;;;13.50;99.90;;;;;;5135681;27;20027;-73
2023/10/20 07:59:48;;;;;;;1999.90;999.90;;;13.50;99.90;;;;;;5137359;27;20027;-73
2023/10/20 08:02:14;;;;;;;1999.90;999.90;;;13.60;99.90;;;;;;5137043;27;20032;-73
2023/10/20 08:04:41;;;;;;;1999.90;999.90;;;13.70;99.90;;;;;;5137529;27;20505;-73
2023/10/20 08:07:09;;;;;;;1999.90;999.90;;;13.80;99.90;;;;;;5135183;27;20032;-73
2023/10/20 08:09:36;;;;;;;1999.90;999.90;;;14.00;99.90;;;;;;5136987;27;20032;-77
2023/10/20 08:12:02;;;;;;;1999.90;999.90;;;13.90;99.90;;;;;;5136765;27;20024;-75
2023/10/20 08:14:28;;;;;;;1999.90;999.90;;;14.00;99.90;;;;;;5138135;27;20409;-75
2023/10/20 08:16:54;;;;;;;1999.90;999.90;;;14.10;99.90;;;;;;5137305;27;20034;-74
2023/10/20 08:19:20;;;;;;;1999.90;999.90;;;14.20;99.90;;;;;;5137528;27;20080;-75
2023/10/20 08:21:46;;;;;;;1999.90;999.90;;;14.30;99.90;;;;;;5137143;27;20080;-73
2023/10/20 08:24:13;;;;;;;1999.90;999.90;;;14.50;99.90;;;;;;5136942;27;20028;-74
2023/10/20 08:26:39;;;;;;;1999.90;999.90;;;14.40;99.90;;;;;;5137228;27;20032;-75
2023/10/20 08:29:11;;;;;;;1999.90;999.90;;;14.50;99.90;;;;;;5137761;27;20049;-75
2023/10/20 08:31:38;;;;;;;1999.90;999.90;;;14.50;99.90;;;;;;5137211;27;20185;-74
2023/10/20 08:34:03;;;;;;;1999.90;999.90;;;14.60;99.90;;;;;;5136160;27;20545;-73
2023/10/20 08:36:29;;;;;;;1999.90;999.90;;;14.60;99.90;;;;;;5133644;27;20035;-74
2023/10/20 08:38:55;;;;;;;1999.90;999.90;;;14.60;99.90;;;;;;5135400;27;20076;-74
2023/10/20 08:41:22;;;;;;;1999.90;999.90;;;14.60;99.90;;;;;;5136631;27;20047;-74
2023/10/20 08:43:49;;;;;;;1999.90;999.90;;;14.60;99.90;;;;;;5136533;27;20517;-73
2023/10/20 08:46:17;;;;;;;1999.90;999.90;;;14.70;99.90;;;;;;5135904;27;20040;-74
2023/10/20 08:48:47;;;;;;;1999.90;999.90;;;14.50;99.90;;;;;;5118277;27;20082;-71
2023/10/20 08:51:15;;;;;;;1999.90;999.90;;;14.50;99.90;;;;;;5127967;27;20046;-71
2023/10/20 08:53:44;;;;;;;1999.90;999.90;;;14.50;99.90;;;;;;5136505;27;20108;-71
2023/10/20 08:56:11;;;;;;;1999.90;999.90;;;14.50;99.90;;;;;;5137323;27;20608;-71
2023/10/20 08:58:38;;;;;;;1999.90;999.90;;;14.60;99.90;;;;;;5136020;27;20039;-70
2023/10/20 09:01:05;;;;;;;1999.90;999.90;;;14.50;99.90;;;;;;5135795;27;20047;-71
2023/10/20 09:03:45;;;;;;;1999.90;999.90;;;14.60;99.90;;;;;;5127413;22;20048;-72
2023/10/20 09:06:14;;;;;;;1999.90;999.90;;;14.70;99.90;;;;;;5056447;28;20048;-74
2023/10/20 09:08:43;;;;;;;1999.90;999.90;;;14.80;99.90;;;;;;5071882;28;20032;-71
2023/10/20 09:11:11;;;;;;;1999.90;999.90;;;14.90;99.90;;;;;;5076743;28;20036;-71
2023/10/20 09:13:39;;;;;;;1999.90;999.90;;;15.00;99.90;;;;;;5056243;28;20028;-72
2023/10/20 09:16:10;;;;;;;1999.90;999.90;;;15.00;99.90;;;;;;5074185;28;20102;-74
2023/10/20 09:18:45;;;;;;;1999.90;999.90;;;15.10;99.90;;;;;;5079354;28;20032;-71
2023/10/20 09:21:29;;;;;;;1999.90;999.90;;;15.00;99.90;;;;;;5074720;28;20033;-71
2023/10/20 09:24:03;;;;;;;1999.90;999.90;;;15.00;99.90;;;;;;5074431;28;20040;-71
2023/10/20 09:26:34;;;;;;;1999.90;999.90;;;14.90;99.90;;;;;;5090940;28;20050;-71
2023/10/20 09:29:00;;;;;;;1999.90;999.90;;;14.90;99.90;;;;;;5094996;28;20039;-75
2023/10/20 09:31:26;;;;;;;1999.90;999.90;;;14.80;99.90;;;;;;5064484;28;20036;-71
2023/10/20 09:33:52;;;;;;;1999.90;999.90;;;14.90;99.90;;;;;;5083909;28;20021;-72
2023/10/20 09:36:22;;;;;;;1999.90;999.90;;;15.10;99.90;;;;;;5094451;28;20044;-71
2023/10/20 09:38:56;;;;;;;1999.90;999.90;;;15.20;99.90;;;;;;5075693;28;20076;-71
2023/10/20 09:41:29;;;;;;;1999.90;999.90;;;15.30;99.90;;;;;;5094402;28;20028;-71
2023/10/20 09:44:06;;;;;;;1999.90;999.90;;;15.30;99.90;;;;;;5093808;28;20037;-71
2023/10/20 09:47:04;;;;;;;1999.90;999.90;;;15.40;99.90;;;;;;5093956;28;20051;-72
2023/10/20 09:49:31;;;;;;;1999.90;999.90;;;15.60;99.90;;;;;;5094172;28;20037;-75
2023/10/20 09:51:56;;;;;;;1999.90;999.90;;;15.50;99.90;;;;;;5094627;28;20033;-76
2023/10/20 09:54:29;;;;;;;1999.90;999.90;;;15.70;99.90;;;;;;5075856;28;20035;-72
2023/10/20 09:56:56;;;;;;;1999.90;999.90;;;15.80;99.90;;;;;;5093872;28;20037;-72
2023/10/20 09:59:24;;;;;;;1999.90;999.90;;;16.10;99.90;;;;;;5076085;28;20052;-75
2023/10/20 10:01:52;;;;;;;1999.90;999.90;;;16.10;99.90;;;;;;5094459;28;20033;-77
2023/10/20 10:04:47;;;;;;;1999.90;999.90;;;16.50;99.90;;;;;;5075212;28;20410;-72
2023/10/20 10:07:15;;;;;;;1999.90;999.90;;;16.70;99.90;;;;;;5065305;28;20533;-73
2023/10/20 10:09:49;;;;;;;1999.90;999.90;;;16.70;99.90;;;;;;5094369;28;20028;-71
2023/10/20 10:12:19;;;;;;;1999.90;999.90;;;16.90;99.90;;;;;;5094580;28;20024;-72
2023/10/20 10:15:05;;;;;;;1999.90;999.90;;;16.80;99.90;;;;;;5094274;28;20058;-72
2023/10/20 10:17:52;;;;;;;1999.90;999.90;;;17.10;99.90;;;;;;5075663;28;20092;-72
2023/10/20 10:20:27;;;;;;;1999.90;999.90;;;17.20;99.90;;;;;;5094153;28;20039;-71
2023/10/20 10:23:00;;;;;;;1999.90;999.90;;;17.20;99.90;;;;;;5094186;28;20032;-71
2023/10/20 10:25:35;;;;;;;1999.90;999.90;;;17.40;99.90;;;;;;5085200;28;20040;-75
2023/10/20 10:28:17;;;;;;;1999.90;999.90;;;17.40;99.90;;;;;;5093908;28;20509;-70
2023/10/20 10:30:45;;;;;;;1999.90;999.90;;;17.30;99.90;;;;;;5097186;28;20116;-73
2023/10/20 10:33:12;;;;;;;1999.90;999.90;;;17.20;99.90;;;;;;5097582;28;20605;-74
2023/10/20 10:35:38;;;;;;;1999.90;999.90;;;17.40;99.90;;;;;;5079012;28;20036;-74
2023/10/20 10:38:08;;;;;;;1999.90;999.90;;;17.50;99.90;;;;;;5096640;28;20504;-74
2023/10/20 10:40:34;;;;;;;1999.90;999.90;;;17.50;99.90;;;;;;5097131;28;20520;-74
2023/10/20 10:42:59;;;;;;;1999.90;999.90;;;17.60;99.90;;;;;;5096791;28;20025;-73
2023/10/20 10:45:34;;;;;;;1999.90;999.90;;;17.70;99.90;;;;;;5097233;28;20482;-74
2023/10/20 10:48:08;;;;;;;1999.90;999.90;;;17.80;99.90;;;;;;5096960;28;20033;-75
2023/10/20 10:50:39;;;;;;;1999.90;999.90;;;17.80;99.90;;;;;;5097502;28;20039;-71
2023/10/20 10:53:05;;;;;;;1999.90;999.90;;;17.60;99.90;;;;;;5078211;28;20032;-75
2023/10/20 10:55:31;;;;;;;1999.90;999.90;;;17.60;99.90;;;;;;5078544;28;20036;-75
2023/10/20 10:58:07;;;;;;;1999.90;999.90;;;17.60;99.90;;;;;;5096895;28;20036;-78
2023/10/20 11:00:36;;;;;;;1999.90;999.90;;;17.60;99.90;;;;;;5097187;28;20334;-73
2023/10/20 11:03:03;;;;;;;1999.90;999.90;;;17.80;99.90;;;;;;5077777;28;20033;-73
2023/10/20 11:05:29;;;;;;;1999.90;999.90;;;18.10;99.90;;;;;;5096984;28;20051;-75
2023/10/20 11:08:05;;;;;;;1999.90;999.90;;;18.00;99.90;;;;;;5096252;28;20032;-72
2023/10/20 11:10:36;;;;;;;1999.90;999.90;;;18.10;99.90;;;;;;5096632;28;20043;-73
2023/10/20 11:13:07;;;;;;;1999.90;999.90;;;18.10;99.90;;;;;;5096456;28;20066;-72
2023/10/20 11:15:33;;;;;;;1999.90;999.90;;;18.30;99.90;;;;;;5096516;28;20502;-73
2023/10/20 11:18:06;;;;;;;1999.90;999.90;;;18.20;99.90;;;;;;5096164;28;20037;-73
2023/10/20 11:20:38;;;;;;;1999.90;999.90;;;18.20;99.90;;;;;;5077707;28;20123;-70
2023/10/20 11:23:05;;;;;;;1999.90;999.90;;;18.20;99.90;;;;;;5075947;28;20025;-73
2023/10/20 11:25:31;;;;;;;1999.90;999.90;;;18.10;99.90;;;;;;5089794;28;20156;-72
2023/10/20 11:27:56;;;;;;;1999.90;999.90;;;18.10;99.90;;;;;;5096325;28;20575;-73
2023/10/20 11:30:27;;;;;;;1999.90;999.90;;;18.30;99.90;;;;;;5096566;28;20036;-72
2023/10/20 11:32:54;;;;;;;1999.90;999.90;;;18.60;99.90;;;;;;5077542;28;20094;-72
2023/10/20 11:35:26;;;;;;;1999.90;999.90;;;18.60;99.90;;;;;;5078146;28;20505;-72
2023/10/20 11:37:53;;;;;;;1999.90;999.90;;;18.50;99.90;;;;;;5096158;28;20047;-72
2023/10/20 11:40:19;;;;;;;1999.90;999.90;;;18.50;99.90;;;;;;5077371;28;20037;-73
2023/10/20 11:42:45;;;;;;;1999.90;999.90;;;18.50;99.90;;;;;;5095887;28;20032;-72
2023/10/20 11:45:11;;;;;;;1999.90;999.90;;;18.40;99.90;;;;;;5095709;28;20045;-72
2023/10/20 11:47:38;;;;;;;1999.90;999.90;;;18.50;99.90;;;;;;5095511;28;20040;-72
2023/10/20 11:50:04;;;;;;;1999.90;999.90;;;18.30;99.90;;;;;;5095567;28;20074;-73
2023/10/20 11:52:30;;;;;;;1999.90;999.90;;;18.10;99.90;;;;;;5077370;28;20058;-72
2023/10/20 11:54:55;;;;;;;1999.90;999.90;;;18.00;99.90;;;;;;5076708;28;20118;-72
2023/10/20 11:57:21;;;;;;;1999.90;999.90;;;18.00;99.90;;;;;;5095876;28;20060;-71
2023/10/20 11:59:47;;;;;;;1999.90;999.90;;;17.90;99.90;;;;;;5095779;28;20036;-73
2023/10/20 12:02:12;;;;;;;1999.90;999.90;;;18.00;99.90;;;;;;5077509;28;20029;-73
2023/10/20 12:04:38;;;;;;;1999.90;999.90;;;18.00;99.90;;;;;;5095195;28;20089;-71
2023/10/20 12:07:06;;;;;;;1999.90;999.90;;;18.10;99.90;;;;;;5095143;28;20513;-73
2023/10/20 12:09:33;;;;;;;1999.90;999.90;;;18.00;99.90;;;;;;5095914;28;20032;-73
2023/10/20 12:11:58;;;;;;;1999.90;999.90;;;17.90;99.90;;;;;;5095260;28;20111;-73
2023/10/20 12:14:26;;;;;;;1999.90;999.90;;;17.80;99.90;;;;;;5077251;28;20124;-72
2023/10/20 12:16:51;;;;;;;1999.90;999.90;;;17.70;99.90;;;;;;5095242;28;20482;-72
2023/10/20 12:19:18;;;;;;;1999.90;999.90;;;17.70;99.90;;;;;;5095944;28;20089;-71
2023/10/20 12:21:43;;;;;;;1999.90;999.90;;;17.60;99.90;;;;;;5096025;28;20087;-70
2023/10/20 12:24:09;;;;;;;1999.90;999.90;;;17.60;99.90;;;;;;5095385;28;20044;-69
2023/10/20 12:26:36;;;;;;;1999.90;999.90;;;17.50;99.90;;;;;;5095584;28;20383;-70
2023/10/20 12:29:02;;;;;;;1999.90;999.90;;;17.50;99.90;;;;;;5095737;28;20032;-72
2023/10/20 12:31:31;;;;;;;1999.90;999.90;;;17.40;99.90;;;;;;5095651;28;20039;-70
2023/10/20 12:33:56;;;;;;;1999.90;999.90;;;17.40;99.90;;;;;;5095681;28;20174;-72
2023/10/20 12:36:22;;;;;;;1999.90;999.90;;;17.50;99.90;;;;;;5095520;28;20166;-70
2023/10/20 12:38:47;;;;;;;1999.90;999.90;;;17.60;99.90;;;;;;5095711;28;20036;-70
2023/10/20 12:41:14;;;;;;;1999.90;999.90;;;17.80;99.90;;;;;;5095705;28;20044;-70